Time;durP1;ratioP1;P1;durP2;ratioP2;P2;SDS_P1;SDS_P2;PMS_P1;PMS_P2;Temp;Humidity;BMP_temperature;BMP_pressure;BME280_temperature;BME280_humidity;BME280_pressure;Samples;Min_cycle;Max_cycle;Signal;HPM_P1;HPM_P2
2021/10/23 00:01:44;;;;;;;0.30;0.30;;;;;;;9.62;73.51;96314.00;5095400;28;20032;-68
2021/10/23 00:04:11;;;;;;;0.30;0.30;;;;;;;9.62;73.61;96308.50;5114560;28;20036;-70
2021/10/23 00:06:37;;;;;;;0.30;0.30;;;;;;;9.63;73.69;96326.59;5114022;28;20404;-69
2021/10/23 00:09:03;;;;;;;0.30;0.30;;;;;;;9.64;73.39;96330.94;5095907;28;20118;-69
2021/10/23 00:11:29;;;;;;;3.03;0.40;;;;;;;9.66;73.67;96331.50;5113956;28;20040;-68
2021/10/23 00:13:54;;;;;;;0.30;0.30;;;;;;;9.67;73.29;96322.13;5114589;28;20067;-70
2021/10/23 00:16:20;;;;;;;1.10;0.52;;;;;;;9.69;73.11;96324.59;5114100;28;20508;-71
2021/10/23 00:18:46;;;;;;;2.83;0.38;;;;;;;9.69;73.40;96328.16;5113840;28;20070;-71
2021/10/23 00:21:12;;;;;;;0.30;0.30;;;;;;;9.71;73.38;96334.16;5113848;28;20027;-68
2021/10/23 00:23:38;;;;;;;1.55;0.50;;;;;;;9.73;73.56;96342.94;5114060;28;20429;-68
2021/10/23 00:26:04;;;;;;;1.23;0.50;;;;;;;9.74;73.34;96333.56;5113531;28;20080;-68
2021/10/23 00:28:29;;;;;;;0.22;0.22;;;;;;;9.76;73.11;96336.84;5113821;28;20484;-70
2021/10/23 00:30:55;;;;;;;0.40;0.40;;;;;;;9.77;73.29;96345.88;5113017;28;20043;-70
2021/10/23 00:33:21;;;;;;;0.25;0.22;;;;;;;9.76;72.95;96342.34;5114123;28;20036;-73
2021/10/23 00:35:47;;;;;;;0.82;0.82;;;;;;;9.76;73.16;96342.34;5095840;28;20538;-71
2021/10/23 00:38:13;;;;;;;2.10;0.50;;;;;;;9.78;73.16;96353.81;5113726;28;20108;-75
2021/10/23 00:40:38;;;;;;;1.25;0.63;;;;;;;9.77;73.18;96338.47;5113758;28;20031;-73
2021/10/23 00:43:04;;;;;;;0.63;0.52;;;;;;;9.76;73.10;96364.25;5115713;28;20409;-74
2021/10/23 00:45:30;;;;;;;0.20;0.20;;;;;;;9.77;73.37;96354.09;5114946;28;20536;-69
2021/10/23 00:47:56;;;;;;;2.30;0.82;;;;;;;9.74;73.36;96352.75;5114449;28;20028;-68
2021/10/23 00:50:21;;;;;;;2.55;0.68;;;;;;;9.69;73.23;96369.25;5095827;28;20034;-68
2021/10/23 00:52:49;;;;;;;1.00;0.70;;;;;;;9.65;73.56;96365.47;5113788;28;20118;-68
2021/10/23 00:55:16;;;;;;;1.25;0.77;;;;;;;9.64;73.56;96372.03;5113574;28;20055;-68
2021/10/23 00:57:42;;;;;;;0.50;0.50;;;;;;;9.63;73.75;96373.16;5113751;28;20036;-70
2021/10/23 01:00:09;;;;;;;0.60;0.60;;;;;;;9.62;73.64;96372.31;5113201;28;20081;-69
2021/10/23 01:02:35;;;;;;;7.95;0.75;;;;;;;9.60;73.48;96371.00;5113728;28;20035;-68
2021/10/23 01:05:03;;;;;;;0.75;0.40;;;;;;;9.58;73.63;96370.47;5113366;28;20031;-68
2021/10/23 01:07:29;;;;;;;0.63;0.30;;;;;;;9.59;73.60;96385.81;5113181;28;20529;-68
2021/10/23 01:09:55;;;;;;;0.60;0.60;;;;;;;9.61;73.26;96380.84;5113299;28;20064;-69
2021/10/23 01:12:20;;;;;;;0.40;0.40;;;;;;;9.65;73.55;96387.38;5113255;28;20034;-68
2021/10/23 01:14:46;;;;;;;0.30;0.30;;;;;;;9.67;73.44;96390.63;5113032;28;20042;-68
2021/10/23 01:17:18;;;;;;;1.60;0.40;;;;;;;9.67;73.09;96382.41;5094642;28;20043;-68
2021/10/23 01:19:48;;;;;;;0.28;0.28;;;;;;;9.69;73.16;96385.69;5112914;28;20039;-67
2021/10/23 01:22:14;;;;;;;1.02;0.70;;;;;;;9.70;73.34;96401.06;5113093;28;20035;-67
2021/10/23 01:24:40;;;;;;;0.40;0.40;;;;;;;9.73;72.99;96405.13;5112708;28;20031;-66
2021/10/23 01:27:06;;;;;;;0.35;0.35;;;;;;;9.75;72.91;96417.44;5112629;28;20178;-72
2021/10/23 01:29:31;;;;;;;1.42;1.02;;;;;;;9.75;73.02;96406.47;5112880;28;20490;-70
2021/10/23 01:31:57;;;;;;;1.27;0.68;;;;;;;9.77;72.97;96417.13;5112617;28;20038;-71
2021/10/23 01:34:26;;;;;;;1.55;0.95;;;;;;;9.76;72.70;96410.00;5112493;28;20449;-70
2021/10/23 01:36:54;;;;;;;1.75;0.68;;;;;;;9.76;73.12;96412.75;5112678;28;20089;-70
2021/10/23 01:39:22;;;;;;;1.08;0.77;;;;;;;9.77;72.96;96417.94;5094362;28;20400;-69
2021/10/23 01:41:48;;;;;;;0.68;0.50;;;;;;;9.76;72.99;96419.06;5112545;28;20039;-70
2021/10/23 01:44:16;;;;;;;0.57;0.57;;;;;;;9.76;73.00;96429.19;5112592;28;20035;-68
2021/10/23 01:46:42;;;;;;;1.38;0.70;;;;;;;9.73;72.78;96438.84;5112467;28;20037;-69
2021/10/23 01:49:08;;;;;;;0.50;0.50;;;;;;;9.71;72.75;96430.06;5112505;28;20080;-67
2021/10/23 01:51:35;;;;;;;0.45;0.45;;;;;;;9.72;73.12;96428.97;5114414;28;20038;-72
2021/10/23 01:54:06;;;;;;;0.55;0.55;;;;;;;9.72;73.03;96428.97;5116865;28;20039;-72
2021/10/23 01:56:33;;;;;;;0.55;0.55;;;;;;;9.69;72.79;96428.72;5098941;28;20035;-74
2021/10/23 01:59:00;;;;;;;0.38;0.38;;;;;;;9.67;73.03;96437.22;5116794;28;20043;-73
2021/10/23 02:01:26;;;;;;;0.55;0.55;;;;;;;9.66;73.19;96441.09;5116331;28;20032;-74
2021/10/23 02:03:52;;;;;;;0.20;0.20;;;;;;;9.64;72.84;96437.78;5098876;28;20038;-72
2021/10/23 02:06:18;;;;;;;0.25;0.25;;;;;;;9.63;73.11;96442.47;5121946;28;20127;-70
2021/10/23 02:08:44;;;;;;;0.35;0.35;;;;;;;9.60;72.86;96437.56;5117403;28;20028;-71
2021/10/23 02:11:10;;;;;;;1.08;0.57;;;;;;;9.61;72.86;96432.91;5116916;28;20027;-71
2021/10/23 02:13:36;;;;;;;0.65;0.65;;;;;;;9.54;73.08;96433.25;5116939;28;20065;-78
2021/10/23 02:16:02;;;;;;;0.60;0.60;;;;;;;9.47;72.90;96432.75;5119182;28;20408;-78
2021/10/23 02:18:27;;;;;;;0.47;0.47;;;;;;;9.40;73.18;96433.06;5120403;28;20043;-80
2021/10/23 02:20:54;;;;;;;0.20;0.20;;;;;;;9.39;73.15;96436.91;5120645;28;20037;-80
2021/10/23 02:23:20;;;;;;;0.40;0.40;;;;;;;9.40;73.15;96444.00;5117318;28;20035;-79
2021/10/23 02:25:46;;;;;;;0.60;0.55;;;;;;;9.42;72.85;96439.09;5119533;28;20115;-77
2021/10/23 02:28:12;;;;;;;0.68;0.50;;;;;;;9.45;73.03;96434.94;5118828;28;20032;-75
2021/10/23 02:30:37;;;;;;;0.75;0.75;;;;;;;9.47;72.65;96452.72;5118991;28;20035;-76
2021/10/23 02:33:03;;;;;;;0.40;0.40;;;;;;;9.47;72.70;96447.25;5118970;28;20512;-74
2021/10/23 02:35:29;;;;;;;0.60;0.55;;;;;;;9.49;72.53;96454.38;5118498;28;20093;-76
2021/10/23 02:37:54;;;;;;;0.63;0.63;;;;;;;9.48;72.59;96459.00;5116820;28;20529;-77
2021/10/23 02:40:20;;;;;;;0.47;0.47;;;;;;;9.50;72.84;96470.53;5116788;28;20039;-74
2021/10/23 02:42:46;;;;;;;0.38;0.38;;;;;;;9.52;72.40;96472.97;5116450;28;20032;-76
2021/10/23 02:45:11;;;;;;;0.73;0.73;;;;;;;9.53;72.47;96486.38;5116466;28;20059;-78
2021/10/23 02:47:37;;;;;;;0.63;0.55;;;;;;;9.55;72.24;96486.09;5115247;28;20058;-76
2021/10/23 02:50:05;;;;;;;0.90;0.47;;;;;;;9.56;72.42;96485.81;5116333;28;20034;-77
2021/10/23 02:52:30;;;;;;;0.28;0.28;;;;;;;9.57;72.42;96487.47;5117981;28;20118;-81
2021/10/23 02:54:56;;;;;;;1.15;0.60;;;;;;;9.58;72.21;96493.75;5118229;28;20059;-81
2021/10/23 02:57:22;;;;;;;0.25;0.25;;;;;;;9.62;72.03;96495.63;5119374;28;20027;-84
2021/10/23 02:59:48;;;;;;;0.38;0.38;;;;;;;9.62;72.17;96481.13;5117491;28;20481;-82
2021/10/23 03:02:13;;;;;;;1.65;0.60;;;;;;;9.61;72.38;96479.47;5119383;28;20055;-81
2021/10/23 03:04:41;;;;;;;0.45;0.35;;;;;;;9.61;72.18;96476.72;5119232;28;20432;-73
2021/10/23 03:07:07;;;;;;;1.23;0.93;;;;;;;9.61;72.27;96498.66;5122347;27;20327;-75
2021/10/23 03:09:33;;;;;;;0.50;0.50;;;;;;;9.60;72.00;96505.25;5127423;27;20035;-73
2021/10/23 03:11:59;;;;;;;1.00;0.77;;;;;;;9.59;71.94;96498.94;5118705;27;20035;-71
2021/10/23 03:14:25;;;;;;;0.65;0.60;;;;;;;9.61;72.20;96496.75;5115936;28;20485;-79
2021/10/23 03:16:51;;;;;;;1.00;0.60;;;;;;;9.61;72.20;96487.69;5116020;28;20512;-79
2021/10/23 03:19:16;;;;;;;0.50;0.47;;;;;;;9.60;71.86;96494.28;5118148;28;20039;-77
2021/10/23 03:21:43;;;;;;;0.20;0.20;;;;;;;9.57;71.91;96486.63;5117256;28;20083;-76
2021/10/23 03:24:08;;;;;;;1.38;1.02;;;;;;;9.56;71.84;96491.28;5116310;28;20371;-71
2021/10/23 03:26:34;;;;;;;1.30;0.50;;;;;;;9.58;71.81;96489.06;5115331;28;20042;-69
2021/10/23 03:29:01;;;;;;;2.20;0.52;;;;;;;9.58;71.94;96489.06;5115550;28;20046;-80
2021/10/23 03:31:27;;;;;;;1.33;1.23;;;;;;;9.57;71.86;96487.47;5115930;28;20031;-84
2021/10/23 03:33:52;;;;;;;0.63;0.63;;;;;;;9.56;71.79;96480.34;5117533;28;20523;-82
2021/10/23 03:36:18;;;;;;;0.63;0.50;;;;;;;9.50;72.02;96486.16;5097230;28;20028;-83
2021/10/23 03:38:44;;;;;;;1.58;0.65;;;;;;;9.50;71.87;96497.09;5115748;28;20031;-82
2021/10/23 03:41:12;;;;;;;1.45;0.65;;;;;;;9.54;71.71;96496.25;5126262;28;20122;-86
2021/10/23 03:43:39;;;;;;;0.70;0.52;;;;;;;9.58;71.79;96489.06;5116737;28;20023;-83
2021/10/23 03:46:05;;;;;;;0.98;0.70;;;;;;;9.61;71.55;96504.13;5103114;28;20058;-84
2021/10/23 03:48:31;;;;;;;0.28;0.28;;;;;;;9.61;71.46;96501.38;5096267;28;20019;-83
2021/10/23 03:50:56;;;;;;;1.40;0.50;;;;;;;9.58;71.86;96501.97;5116178;28;20039;-82
2021/10/23 03:53:22;;;;;;;0.13;0.13;;;;;;;9.55;71.56;96492.38;5117673;28;20091;-79
2021/10/23 03:55:48;;;;;;;1.27;1.17;;;;;;;9.53;71.54;96493.78;5117359;28;20031;-80
2021/10/23 03:58:14;;;;;;;0.30;0.30;;;;;;;9.52;71.56;96508.59;5117236;27;20031;-73
2021/10/23 04:00:40;;;;;;;0.70;0.70;;;;;;;9.50;71.49;96519.84;5134333;27;20052;-74
2021/10/23 04:03:06;;;;;;;0.38;0.38;;;;;;;9.51;71.53;96517.91;5134621;27;20070;-75
2021/10/23 04:05:31;;;;;;;0.47;0.47;;;;;;;9.52;71.50;96522.28;5135017;27;20087;-74
2021/10/23 04:07:57;;;;;;;0.40;0.40;;;;;;;9.55;71.50;96521.72;5134985;27;20116;-75
2021/10/23 04:10:23;;;;;;;0.40;0.40;;;;;;;9.54;71.69;96528.28;5134725;27;20027;-75
2021/10/23 04:12:49;;;;;;;0.45;0.43;;;;;;;9.58;71.35;96526.63;5135590;27;20484;-76
2021/10/23 04:15:15;;;;;;;0.40;0.40;;;;;;;9.57;71.26;96523.06;5134216;27;20041;-77
2021/10/23 04:17:41;;;;;;;0.45;0.45;;;;;;;9.56;71.44;96532.38;5134959;27;20053;-77
2021/10/23 04:20:07;;;;;;;0.40;0.40;;;;;;;9.56;71.46;96531.56;5133244;27;20099;-76
2021/10/23 04:22:34;;;;;;;0.35;0.35;;;;;;;9.56;71.55;96531.56;5134508;27;20031;-76
2021/10/23 04:24:59;;;;;;;0.25;0.20;;;;;;;9.57;71.74;96541.41;5135053;27;20124;-74
2021/10/23 04:27:25;;;;;;;0.47;0.40;;;;;;;9.58;71.63;96538.38;5133656;27;20039;-75
2021/10/23 04:29:51;;;;;;;0.85;0.85;;;;;;;9.60;71.26;96544.41;5130670;27;20084;-76
2021/10/23 04:32:17;;;;;;;0.52;0.52;;;;;;;9.62;71.14;96535.91;5128327;27;20043;-67
2021/10/23 04:34:43;;;;;;;0.10;0.10;;;;;;;9.58;71.62;96526.63;5122839;27;20505;-70
2021/10/23 04:37:09;;;;;;;0.20;0.20;;;;;;;9.51;71.69;96532.44;5112178;28;20434;-68
2021/10/23 04:39:36;;;;;;;0.50;0.50;;;;;;;9.46;71.67;96538.75;5110408;28;20178;-70
2021/10/23 04:42:02;;;;;;;3.38;0.77;;;;;;;9.41;71.91;96538.78;5114103;28;20047;-73
2021/10/23 04:44:28;;;;;;;0.38;0.38;;;;;;;9.38;71.80;96533.88;5121935;27;20066;-72
2021/10/23 04:46:55;;;;;;;0.38;0.38;;;;;;;9.38;71.73;96533.03;5124520;27;20386;-74
2021/10/23 04:49:21;;;;;;;0.65;0.60;;;;;;;9.42;71.47;96545.91;5089437;28;20508;-70
2021/10/23 04:51:47;;;;;;;0.30;0.30;;;;;;;9.46;71.73;96537.94;5111010;28;20028;-71
2021/10/23 04:54:12;;;;;;;0.57;0.57;;;;;;;9.47;71.65;96548.59;5112100;28;20446;-80
2021/10/23 04:56:38;;;;;;;0.30;0.30;;;;;;;9.41;71.65;96541.53;5113665;27;20083;-79
2021/10/23 04:59:04;;;;;;;0.60;0.60;;;;;;;9.32;71.75;96543.22;5116100;27;20036;-76
2021/10/23 05:01:30;;;;;;;0.50;0.50;;;;;;;9.25;72.00;96548.19;5118223;27;20043;-73
2021/10/23 05:03:56;;;;;;;0.30;0.30;;;;;;;9.20;72.16;96561.91;5112284;28;20040;-69
2021/10/23 05:06:22;;;;;;;0.30;0.30;;;;;;;9.21;71.78;96566.28;5112721;28;20524;-71
2021/10/23 05:08:47;;;;;;;1.38;1.15;;;;;;;9.14;71.96;96565.75;5095963;28;20051;-75
2021/10/23 05:11:13;;;;;;;0.20;0.20;;;;;;;9.07;72.28;96569.63;5096228;28;20096;-74
2021/10/23 05:13:39;;;;;;;0.82;0.45;;;;;;;9.02;72.15;96563.34;5094460;28;20035;-77
2021/10/23 05:16:08;;;;;;;0.57;0.47;;;;;;;9.00;72.29;96557.34;5097644;28;20089;-75
2021/10/23 05:18:33;;;;;;;0.40;0.40;;;;;;;9.04;72.25;96563.88;5110300;28;20048;-76
2021/10/23 05:20:59;;;;;;;0.28;0.28;;;;;;;9.09;72.15;96556.47;5112018;28;20473;-75
2021/10/23 05:23:25;;;;;;;0.20;0.20;;;;;;;9.17;71.84;96552.34;5111754;28;20031;-74
2021/10/23 05:25:50;;;;;;;0.30;0.25;;;;;;;9.40;71.48;96548.09;5110859;28;20028;-72
2021/10/23 05:28:16;;;;;;;0.45;0.45;;;;;;;9.54;71.16;96551.03;5111315;28;20058;-73
2021/10/23 05:30:42;;;;;;;0.50;0.50;;;;;;;9.67;70.46;96551.50;5111079;28;20074;-73
2021/10/23 05:33:08;;;;;;;0.50;0.50;;;;;;;9.66;70.87;96542.47;5107685;28;20043;-74
2021/10/23 05:35:34;;;;;;;0.55;0.55;;;;;;;9.73;70.92;96564.88;5110547;28;20059;-74
2021/10/23 05:38:00;;;;;;;0.82;0.82;;;;;;;9.80;70.72;96567.28;5111030;28;20078;-74
2021/10/23 05:40:25;;;;;;;0.40;0.40;;;;;;;9.81;70.48;96580.72;5111476;28;20808;-73
2021/10/23 05:42:51;;;;;;;0.50;0.50;;;;;;;9.85;70.56;96569.19;5111200;28;20035;-75
2021/10/23 05:45:17;;;;;;;0.43;0.43;;;;;;;9.88;70.70;96585.03;5111530;28;20481;-72
2021/10/23 05:47:43;;;;;;;0.20;0.20;;;;;;;9.92;70.45;96584.22;5109696;28;20035;-74
2021/10/23 05:50:11;;;;;;;4.30;0.43;;;;;;;9.91;70.59;96579.84;5110927;28;20375;-73
2021/10/23 05:52:38;;;;;;;0.98;0.63;;;;;;;9.92;70.28;96586.13;5089936;28;20023;-74
2021/10/23 05:55:04;;;;;;;0.20;0.20;;;;;;;10.02;70.13;96607.16;5109336;28;20092;-75
2021/10/23 05:57:30;;;;;;;0.32;0.32;;;;;;;10.09;70.16;96604.94;5107144;28;20134;-72
2021/10/23 05:59:56;;;;;;;0.55;0.55;;;;;;;10.18;69.85;96606.75;5108843;28;20059;-72
2021/10/23 06:02:25;;;;;;;0.10;0.10;;;;;;;10.18;69.60;96611.44;5109491;28;20070;-73
2021/10/23 06:04:54;;;;;;;0.32;0.32;;;;;;;10.10;70.05;96607.38;5107682;28;20063;-73
2021/10/23 06:07:21;;;;;;;0.50;0.50;;;;;;;9.99;69.89;96612.09;5091074;28;20096;-71
2021/10/23 06:09:47;;;;;;;0.55;0.55;;;;;;;9.98;70.28;96609.66;5108837;28;20040;-71
2021/10/23 06:12:14;;;;;;;0.20;0.20;;;;;;;10.11;69.47;96611.75;5091782;28;20031;-78
2021/10/23 06:14:40;;;;;;;0.50;0.30;;;;;;;10.41;68.65;96631.84;5108690;28;20398;-75
2021/10/23 06:17:06;;;;;;;0.65;0.40;;;;;;;10.39;68.87;96612.09;5090570;28;20058;-72
2021/10/23 06:19:34;;;;;;;0.50;0.50;;;;;;;10.23;69.01;96616.06;5108982;28;20118;-74
2021/10/23 06:22:00;;;;;;;0.60;0.60;;;;;;;10.12;69.16;96627.09;5109164;28;20036;-70
2021/10/23 06:24:26;;;;;;;0.55;0.55;;;;;;;10.09;69.11;96641.38;5108064;28;20472;-73
2021/10/23 06:26:52;;;;;;;0.57;0.57;;;;;;;10.07;69.20;96651.00;5108663;28;20123;-71
2021/10/23 06:29:18;;;;;;;0.50;0.50;;;;;;;10.21;68.96;96648.44;5109707;28;20043;-75
2021/10/23 06:31:44;;;;;;;0.40;0.40;;;;;;;10.36;68.05;96653.00;5111486;28;20027;-81
2021/10/23 06:34:10;;;;;;;0.47;0.47;;;;;;;10.44;68.02;96677.91;5111299;28;20077;-73
2021/10/23 06:36:35;;;;;;;0.20;0.20;;;;;;;10.48;67.79;96670.75;5110620;28;20095;-76
2021/10/23 06:39:02;;;;;;;0.63;0.43;;;;;;;10.42;68.12;96649.13;5112565;28;20505;-74
2021/10/23 06:41:27;;;;;;;1.08;0.50;;;;;;;10.45;68.15;96670.50;5095921;28;20096;-71
2021/10/23 06:43:53;;;;;;;4.85;0.55;;;;;;;10.53;67.70;96656.16;5113914;28;20063;-71
2021/10/23 06:46:20;;;;;;;0.30;0.30;;;;;;;10.59;67.50;96657.75;5113627;28;20039;-70
2021/10/23 06:48:46;;;;;;;0.63;0.63;;;;;;;10.67;67.49;96662.63;5113238;28;20044;-72
2021/10/23 06:51:11;;;;;;;0.20;0.20;;;;;;;10.74;66.92;96659.53;5112830;28;20493;-68
2021/10/23 06:53:37;;;;;;;0.10;0.10;;;;;;;10.87;66.64;96675.34;5093949;28;20076;-69
2021/10/23 06:56:03;;;;;;;0.20;0.20;;;;;;;10.97;66.40;96676.38;5112727;28;20088;-68
2021/10/23 06:59:12;;;;;;;0.95;0.90;;;;;;;11.09;65.87;96687.75;5107860;27;20351;-68
2021/10/23 07:01:38;;;;;;;0.30;0.30;;;;;;;11.30;65.36;96680.13;5106700;28;20096;-72
2021/10/23 07:04:04;;;;;;;1.73;0.63;;;;;;;11.30;65.39;96671.06;5108379;28;20058;-70
2021/10/23 07:06:30;;;;;;;0.57;0.57;;;;;;;11.20;65.63;96686.56;5115432;28;20032;-67
2021/10/23 07:08:55;;;;;;;0.20;0.20;;;;;;;11.23;65.36;96679.63;5108297;28;20505;-70
2021/10/23 07:11:21;;;;;;;0.30;0.30;;;;;;;11.31;64.99;96686.44;5106778;28;20454;-71
2021/10/23 07:13:47;;;;;;;0.30;0.30;;;;;;;11.28;65.25;96693.34;5108112;28;20039;-73
2021/10/23 07:16:12;;;;;;;0.22;0.22;;;;;;;11.16;65.39;96715.72;5106913;28;20135;-68
2021/10/23 07:18:38;;;;;;;0.20;0.20;;;;;;;10.96;65.86;96711.22;5106724;28;20036;-74
2021/10/23 07:21:04;;;;;;;0.30;0.30;;;;;;;10.81;65.72;96695.72;5106862;28;20031;-74
2021/10/23 07:23:30;;;;;;;0.20;0.20;;;;;;;10.69;65.95;96718.06;5106803;28;20101;-75
2021/10/23 07:25:57;;;;;;;0.40;0.40;;;;;;;10.56;65.97;96710.47;5108846;28;20040;-78
2021/10/23 07:28:23;;;;;;;0.22;0.22;;;;;;;10.47;66.03;96712.19;5108837;28;20031;-78
2021/10/23 07:30:49;;;;;;;0.25;0.25;;;;;;;10.38;65.97;96730.34;5106601;28;20081;-77
2021/10/23 07:33:15;;;;;;;0.20;0.20;;;;;;;10.30;66.21;96707.06;5107816;28;20509;-84
2021/10/23 07:35:40;;;;;;;0.40;0.40;;;;;;;10.27;65.94;96715.88;5107631;28;20127;-75
2021/10/23 07:38:07;;;;;;;0.10;0.10;;;;;;;10.32;65.67;96710.31;5106348;28;20105;-76
2021/10/23 07:40:33;;;;;;;0.28;0.28;;;;;;;10.39;65.25;96707.31;5107512;28;20032;-79
2021/10/23 07:43:02;;;;;;;0.30;0.30;;;;;;;10.44;64.78;96705.34;5106135;28;20032;-75
2021/10/23 07:45:28;;;;;;;0.20;0.20;;;;;;;10.51;64.23;96735.19;5088743;28;20038;-73
2021/10/23 07:47:54;;;;;;;0.50;0.50;;;;;;;10.68;64.00;96715.59;5104797;28;20035;-80
2021/10/23 07:50:19;;;;;;;0.10;0.10;;;;;;;10.84;63.29;96719.84;5106631;28;20036;-76
2021/10/23 07:52:46;;;;;;;0.40;0.40;;;;;;;11.00;63.14;96731.50;5111396;28;20038;-76
2021/10/23 07:55:12;;;;;;;0.25;0.20;;;;;;;11.05;62.54;96727.91;5108861;28;20448;-69
2021/10/23 07:57:39;;;;;;;0.30;0.30;;;;;;;11.02;62.73;96728.47;5118244;28;20020;-81
2021/10/23 08:00:06;;;;;;;0.20;0.20;;;;;;;11.01;62.85;96732.31;5120585;28;20202;-76
2021/10/23 08:02:32;;;;;;;0.10;0.10;;;;;;;10.97;62.81;96725.78;5111370;28;20110;-82
2021/10/23 08:04:58;;;;;;;0.20;0.20;;;;;;;10.84;62.89;96733.56;5109347;28;20481;-77
2021/10/23 08:07:24;;;;;;;0.30;0.30;;;;;;;10.68;63.51;96741.09;5108469;28;20034;-80
2021/10/23 08:09:50;;;;;;;0.82;0.40;;;;;;;10.50;63.61;96750.03;5097857;28;20067;-72
2021/10/23 08:12:16;;;;;;;0.10;0.10;;;;;;;10.49;63.88;96754.69;5093074;28;20047;-76
2021/10/23 08:14:41;;;;;;;0.20;0.20;;;;;;;10.44;63.69;96746.50;5090407;28;20039;-77
2021/10/23 08:17:07;;;;;;;0.10;0.10;;;;;;;10.31;63.67;96727.91;5092522;28;20382;-75
2021/10/23 08:19:35;;;;;;;0.10;0.10;;;;;;;10.13;64.03;96763.13;5096861;28;20035;-81
2021/10/23 08:22:01;;;;;;;0.10;0.10;;;;;;;9.95;63.84;96763.75;5094985;28;20034;-81
2021/10/23 08:24:26;;;;;;;0.20;0.20;;;;;;;9.81;64.27;96758.06;5092629;28;20118;-81
2021/10/23 08:26:52;;;;;;;0.10;0.10;;;;;;;9.72;64.45;96774.25;5096844;28;20053;-81
2021/10/23 08:29:18;;;;;;;0.20;0.20;;;;;;;9.70;64.08;96776.47;5093741;28;20129;-82
2021/10/23 08:31:44;;;;;;;0.40;0.40;;;;;;;9.70;63.63;96792.06;5096783;28;20063;-84
2021/10/23 08:34:10;;;;;;;0.25;0.25;;;;;;;9.75;63.63;96806.59;5094805;28;20509;-75
2021/10/23 08:36:36;;;;;;;0.65;0.65;;;;;;;9.87;63.23;96802.72;5094044;28;20452;-81
2021/10/23 08:39:04;;;;;;;0.30;0.30;;;;;;;9.97;62.52;96791.72;5096560;28;20043;-82
2021/10/23 08:41:31;;;;;;;0.30;0.30;;;;;;;10.09;62.25;96805.09;5095178;28;20024;-84
2021/10/23 08:44:01;;;;;;;0.45;0.45;;;;;;;10.20;61.83;96811.34;5095164;28;20340;-82
2021/10/23 08:46:29;;;;;;;0.22;0.22;;;;;;;10.24;61.79;96805.00;5094870;28;20047;-80
2021/10/23 08:48:55;;;;;;;0.20;0.20;;;;;;;10.28;61.75;96805.28;5095884;28;20023;-80
2021/10/23 08:51:25;;;;;;;0.28;0.28;;;;;;;10.34;61.84;96818.72;5095200;28;20031;-84
2021/10/23 08:53:51;;;;;;;0.20;0.20;;;;;;;10.45;61.67;96821.41;5093057;28;20196;-76
2021/10/23 08:56:17;;;;;;;0.10;0.10;;;;;;;10.60;61.30;96832.28;5092555;28;20043;-75
2021/10/23 08:58:43;;;;;;;0.88;0.88;;;;;;;10.76;60.78;96824.78;5095920;28;20055;-81
2021/10/23 09:01:12;;;;;;;0.40;0.40;;;;;;;10.83;60.85;96817.03;5092872;28;20119;-78
2021/10/23 09:03:42;;;;;;;0.20;0.20;;;;;;;10.71;60.93;96819.31;5094821;28;20036;-86
2021/10/23 09:06:27;;;;;;;0.20;0.20;;;;;;;10.50;61.36;96815.88;5094080;28;20039;-78
2021/10/23 09:09:10;;;;;;;0.20;0.20;;;;;;;10.30;61.85;96825.81;5095818;28;20093;-85
2021/10/23 09:11:41;;;;;;;0.28;0.28;;;;;;;10.15;62.46;96821.22;5095188;28;20043;-81
2021/10/23 09:14:35;;;;;;;0.35;0.35;;;;;;;10.08;62.39;96826.19;5096479;28;20168;-79
2021/10/23 09:17:08;;;;;;;0.15;0.15;;;;;;;10.06;62.17;96825.66;5092545;28;20047;-79
2021/10/23 09:19:38;;;;;;;0.30;0.30;;;;;;;10.00;62.31;96822.13;5094646;28;20055;-84
2021/10/23 09:22:06;;;;;;;0.13;0.13;;;;;;;9.89;62.50;96833.41;5093963;28;20503;-83
2021/10/23 09:24:33;;;;;;;0.10;0.10;;;;;;;9.72;62.92;96859.22;5095134;28;20039;-85
2021/10/23 09:26:59;;;;;;;0.10;0.10;;;;;;;9.52;63.04;96862.78;5095127;28;20514;-81
2021/10/23 09:29:26;;;;;;;0.30;0.30;;;;;;;9.42;63.10;96847.22;5094290;28;20119;-81
2021/10/23 09:31:55;;;;;;;0.10;0.10;;;;;;;9.32;63.80;96873.78;5092585;28;20040;-84
2021/10/23 09:34:23;;;;;;;0.40;0.40;;;;;;;9.21;63.58;96851.88;5094264;28;20040;-75
2021/10/23 09:36:49;;;;;;;0.30;0.30;;;;;;;9.12;63.31;96884.44;5097635;28;20096;-82
2021/10/23 09:40:10;;;;;;;0.10;0.10;;;;;;;9.01;63.34;96884.72;5092473;28;20550;-70
2021/10/23 09:43:11;;;;;;;0.35;0.35;;;;;;;8.88;63.74;96891.56;5089596;28;20502;-69
2021/10/23 09:45:57;;;;;;;0.15;0.15;;;;;;;8.79;63.86;96907.69;5091439;28;20588;-71
2021/10/23 09:49:01;;;;;;;0.20;0.20;;;;;;;8.88;63.38;96907.97;5089911;28;20024;-67
2021/10/23 09:52:21;;;;;;;0.20;0.20;;;;;;;9.19;62.59;96892.41;5093716;28;20036;-71
2021/10/23 09:55:28;;;;;;;0.98;0.35;;;;;;;9.52;61.85;96894.88;5089103;28;20438;-68
2021/10/23 10:02:17;;;;;;;0.28;0.28;;;;;;;9.91;61.09;96902.47;5075578;28;20178;-73
2021/10/23 10:08:45;;;;;;;0.15;0.15;;;;;;;10.44;59.94;96908.38;5064002;28;20058;-73
2021/10/23 10:11:51;;;;;;;0.30;0.30;;;;;;;10.51;60.18;96911.66;5054317;28;20058;-79
2021/10/23 10:14:56;;;;;;;0.38;0.38;;;;;;;10.50;60.16;96907.25;5065370;28;20491;-67
2021/10/23 10:17:42;;;;;;;;;;;;;;;10.22;60.86;96908.72;5057064;28;20059;-71
2021/10/23 10:34:14;;;;;;;0.57;0.57;;;;;;;9.67;62.16;96922.22;5050262;28;20159;-67
2021/10/23 10:44:27;;;;;;;0.22;0.22;;;;;;;8.84;63.70;96956.94;5054542;28;20170;-68
2021/10/23 10:47:42;;;;;;;0.10;0.10;;;;;;;8.64;64.10;96963.16;5079260;28;20025;-71
2021/10/23 10:50:53;;;;;;;0.20;0.20;;;;;;;8.46;64.07;96950.78;5068906;28;20036;-69
2021/10/23 10:57:22;;;;;;;0.20;0.20;;;;;;;8.24;64.01;96956.38;5054543;28;20063;-70
2021/10/23 11:11:14;;;;;;;0.20;0.20;;;;;;;7.81;64.26;96974.72;5052878;28;20060;-66
2021/10/23 11:14:23;;;;;;;0.20;0.20;;;;;;;7.75;64.05;96967.56;5067683;28;20048;-71
2021/10/23 11:16:55;;;;;;;0.10;0.10;;;;;;;7.70;64.07;96969.19;5071922;28;20105;-65
2021/10/23 11:19:27;;;;;;;0.20;0.20;;;;;;;7.69;63.91;96970.25;5072198;28;20404;-66
2021/10/23 11:22:40;;;;;;;0.20;0.20;;;;;;;7.66;64.01;96965.31;5071818;28;20039;-66
2021/10/23 11:25:26;;;;;;;0.20;0.20;;;;;;;7.59;64.25;96963.91;5102840;28;20063;-69
2021/10/23 11:28:31;;;;;;;2.42;0.77;;;;;;;7.53;64.13;96973.94;5071783;28;20388;-73
2021/10/23 11:31:36;;;;;;;0.20;0.20;;;;;;;7.48;64.28;96968.44;5071623;28;20409;-71
2021/10/23 11:37:48;;;;;;;0.85;0.85;;;;;;;7.44;64.09;96950.94;5069113;28;19941;-80
2021/10/23 11:43:39;;;;;;;0.10;0.10;;;;;;;7.44;64.05;96965.41;5070681;28;20086;-79
2021/10/23 11:46:07;;;;;;;0.30;0.30;;;;;;;7.45;63.91;96980.72;5075913;28;20478;-73
2021/10/23 11:48:34;;;;;;;0.20;0.20;;;;;;;7.45;64.01;96979.88;5074917;28;20397;-76
2021/10/23 11:51:00;;;;;;;0.93;0.40;;;;;;;7.43;63.60;96992.97;5073924;28;20041;-72
2021/10/23 11:53:29;;;;;;;0.20;0.20;;;;;;;7.43;63.73;96988.31;5074644;28;20539;-70
2021/10/23 11:56:03;;;;;;;0.20;0.20;;;;;;;7.41;63.76;96990.50;5075332;28;20035;-80
2021/10/23 11:58:35;;;;;;;0.20;0.20;;;;;;;7.37;63.79;96995.66;5075225;28;20037;-79
2021/10/23 12:01:05;;;;;;;0.10;0.10;;;;;;;7.33;63.69;97000.00;5075191;28;20039;-71
2021/10/23 12:03:38;;;;;;;0.68;0.52;;;;;;;7.29;63.76;97009.78;5075839;28;20468;-75
2021/10/23 12:06:21;;;;;;;0.30;0.30;;;;;;;7.23;64.06;97010.81;5075282;28;20033;-68
2021/10/23 12:08:48;;;;;;;0.20;0.20;;;;;;;7.16;64.19;97018.38;5069589;28;20040;-74
2021/10/23 12:11:23;;;;;;;0.30;0.22;;;;;;;7.08;64.42;97024.28;5073872;28;20032;-71
2021/10/23 12:14:15;;;;;;;;;;;;;;;6.97;64.77;97029.63;5072549;28;20039;-71
2021/10/23 12:16:44;;;;;;;0.35;0.32;;;;;;;6.89;64.72;97038.28;5073114;28;19916;-68
2021/10/23 12:19:18;;;;;;;0.30;0.30;;;;;;;6.84;64.79;97041.75;5072202;28;20032;-73
2021/10/23 12:21:47;;;;;;;0.43;0.43;;;;;;;6.78;65.01;97053.69;5070110;28;20514;-72
2021/10/23 12:24:17;;;;;;;0.25;0.25;;;;;;;6.74;65.16;97054.44;5071800;28;20498;-74
2021/10/23 12:26:43;;;;;;;0.40;0.40;;;;;;;6.71;65.02;97065.88;5071158;28;20025;-69
2021/10/23 12:29:12;;;;;;;0.20;0.20;;;;;;;6.68;65.17;97074.56;5071728;28;20421;-70
2021/10/23 12:32:05;;;;;;;0.30;0.30;;;;;;;6.66;64.91;97072.09;5070614;28;20028;-74
2021/10/23 12:34:53;;;;;;;0.30;0.30;;;;;;;6.58;64.96;97078.81;5069560;28;20028;-73
2021/10/23 12:37:28;;;;;;;0.22;0.22;;;;;;;6.56;65.15;97083.66;5074355;28;20403;-73
2021/10/23 12:40:21;;;;;;;0.93;0.32;;;;;;;6.54;64.87;97082.28;5072210;28;20039;-70
2021/10/23 12:42:56;;;;;;;0.52;0.38;;;;;;;6.49;65.13;97102.09;5070901;28;20079;-74